Time;durP1;ratioP1;P1;durP2;ratioP2;P2;SDS_P1;SDS_P2;PMS_P1;PMS_P2;Temp;Humidity;BMP_temperature;BMP_pressure;BME280_temperature;BME280_humidity;BME280_pressure;Samples;Min_cycle;Max_cycle;Signal;HPM_P1;HPM_P2
2022/06/10 00:01:07;;;;;;;4.03;1.30;;;14.20;99.90;;;;;;10305061;28;20169;-60
2022/06/10 00:06:11;;;;;;;1.58;1.40;;;14.20;99.90;;;;;;10294418;28;20588;-60
2022/06/10 00:11:13;;;;;;;7.13;1.58;;;14.10;99.90;;;;;;10310526;28;20043;-60
2022/06/10 00:16:18;;;;;;;1.83;1.20;;;14.00;99.90;;;;;;10309368;28;20046;-60
2022/06/10 00:21:21;;;;;;;1.98;1.50;;;13.90;99.90;;;;;;10307125;28;20089;-60
2022/06/10 00:26:22;;;;;;;8.70;2.45;;;13.80;99.90;;;;;;10308594;28;20548;-60
2022/06/10 00:31:24;;;;;;;5.53;1.42;;;13.80;99.90;;;;;;10309542;28;20455;-60
2022/06/10 00:36:26;;;;;;;2.65;1.25;;;13.70;99.90;;;;;;10308631;28;20054;-61
2022/06/10 00:41:28;;;;;;;3.58;1.45;;;13.50;99.90;;;;;;10282511;28;20105;-61
2022/06/10 00:46:36;;;;;;;3.47;1.98;;;13.50;99.90;;;;;;10309943;28;20054;-60
2022/06/10 00:51:51;;;;;;;3.10;1.83;;;13.40;99.90;;;;;;10289988;28;20046;-61
2022/06/10 00:56:54;;;;;;;7.00;1.50;;;13.40;99.90;;;;;;10308818;28;20054;-61
2022/06/10 01:01:59;;;;;;;6.03;1.48;;;13.30;99.90;;;;;;10308869;28;20050;-61
2022/06/10 01:07:02;;;;;;;5.63;1.58;;;13.30;99.90;;;;;;10308482;28;20042;-61
2022/06/10 01:12:23;;;;;;;3.60;1.40;;;13.30;99.90;;;;;;10309007;28;20061;-61
2022/06/10 01:17:41;;;;;;;2.78;1.35;;;13.20;99.90;;;;;;10304294;28;20054;-61
2022/06/10 01:23:25;;;;;;;3.42;1.42;;;13.10;99.90;;;;;;10306506;28;20062;-61
2022/06/10 01:28:56;;;;;;;1.92;1.02;;;13.10;99.90;;;;;;10280907;28;20046;-61
2022/06/10 01:34:26;;;;;;;3.55;0.80;;;13.00;99.90;;;;;;10306480;28;20050;-61
2022/06/10 01:39:51;;;;;;;2.58;1.10;;;12.90;99.90;;;;;;10304856;28;20073;-61
2022/06/10 01:44:55;;;;;;;6.13;1.63;;;12.80;99.90;;;;;;10289260;28;20486;-61
2022/06/10 01:50:03;;;;;;;2.58;1.38;;;12.60;99.90;;;;;;10303201;28;20113;-61
2022/06/10 01:55:18;;;;;;;1.75;1.40;;;12.60;99.90;;;;;;10303502;28;20535;-61
2022/06/10 02:00:29;;;;;;;3.47;1.40;;;12.50;99.90;;;;;;10302533;28;20513;-61
2022/06/10 02:05:39;;;;;;;2.53;1.50;;;12.50;99.90;;;;;;10289452;28;20046;-61
2022/06/10 02:10:54;;;;;;;3.35;1.50;;;12.40;99.90;;;;;;10303870;28;20050;-61
2022/06/10 02:16:00;;;;;;;6.03;1.50;;;12.30;99.90;;;;;;10305781;28;20543;-61
2022/06/10 02:21:10;;;;;;;2.95;1.40;;;12.30;99.90;;;;;;10307397;28;20054;-61
2022/06/10 02:26:13;;;;;;;2.40;1.30;;;12.20;99.90;;;;;;10290778;28;20108;-61
2022/06/10 02:31:25;;;;;;;5.43;1.17;;;12.20;99.90;;;;;;10305928;28;20046;-62
2022/06/10 02:36:47;;;;;;;2.75;1.60;;;12.20;99.90;;;;;;10305156;28;20054;-61
2022/06/10 02:41:58;;;;;;;4.72;2.08;;;12.10;99.90;;;;;;10303901;28;20052;-61
2022/06/10 02:47:11;;;;;;;5.55;1.40;;;12.10;99.90;;;;;;10305854;28;20054;-61
2022/06/10 02:52:16;;;;;;;3.08;1.55;;;12.00;99.90;;;;;;10285861;28;20528;-61
2022/06/10 02:57:21;;;;;;;2.80;1.40;;;11.90;99.90;;;;;;10306058;28;20085;-62
2022/06/10 03:02:52;;;;;;;2.42;1.77;;;11.80;99.90;;;;;;10310794;28;20501;-61
2022/06/10 03:08:11;;;;;;;3.22;1.70;;;11.80;99.90;;;;;;10309250;28;20113;-60
2022/06/10 03:13:25;;;;;;;4.00;1.50;;;11.70;99.90;;;;;;10292177;28;20405;-65
2022/06/10 03:19:01;;;;;;;1.98;1.33;;;11.70;99.90;;;;;;10314141;28;20065;-66
2022/06/10 03:24:24;;;;;;;2.47;1.52;;;11.70;99.90;;;;;;10292452;28;20053;-66
2022/06/10 03:29:39;;;;;;;2.72;1.58;;;11.70;99.90;;;;;;10312901;28;20869;-66
2022/06/10 03:34:46;;;;;;;2.92;1.75;;;11.60;99.90;;;;;;10313139;28;20050;-66
2022/06/10 03:39:52;;;;;;;2.40;1.90;;;11.50;99.90;;;;;;10312841;28;20051;-66
2022/06/10 03:44:56;;;;;;;5.70;2.03;;;11.50;99.90;;;;;;10312482;28;20054;-67
2022/06/10 03:50:04;;;;;;;3.45;1.77;;;11.50;99.90;;;;;;10310296;28;20097;-67
2022/06/10 03:55:08;;;;;;;5.45;2.05;;;11.50;99.90;;;;;;10311008;28;20046;-67
2022/06/10 04:00:22;;;;;;;6.80;2.53;;;11.50;99.90;;;;;;10312255;28;20704;-66
2022/06/10 04:05:24;;;;;;;4.05;1.92;;;11.60;99.90;;;;;;10310275;28;20049;-66
2022/06/10 04:10:28;;;;;;;4.32;2.25;;;11.60;99.90;;;;;;10309769;28;20058;-67
2022/06/10 04:15:32;;;;;;;3.60;2.60;;;11.70;99.90;;;;;;10288160;28;20069;-67
2022/06/10 04:20:37;;;;;;;3.88;1.98;;;11.70;99.90;;;;;;10312386;28;20120;-66
2022/06/10 04:25:39;;;;;;;3.90;2.40;;;11.80;99.90;;;;;;10311663;28;20050;-67
2022/06/10 04:30:44;;;;;;;4.32;2.15;;;11.90;99.90;;;;;;10310514;28;20042;-66
2022/06/10 04:35:48;;;;;;;4.95;3.10;;;11.90;99.90;;;;;;10307972;28;20050;-66
2022/06/10 04:40:50;;;;;;;3.78;2.92;;;12.00;99.90;;;;;;10307493;28;20100;-67
2022/06/10 04:45:54;;;;;;;5.35;3.05;;;12.10;99.90;;;;;;10307088;28;20042;-66
2022/06/10 04:50:56;;;;;;;4.70;3.00;;;12.20;99.90;;;;;;10307994;28;20077;-66
2022/06/10 04:55:58;;;;;;;6.82;3.85;;;12.30;99.90;;;;;;10309971;28;20042;-66
2022/06/10 05:01:00;;;;;;;4.93;2.80;;;12.50;99.90;;;;;;10308914;28;20125;-67
2022/06/10 05:06:02;;;;;;;4.65;2.83;;;12.60;99.90;;;;;;10306906;28;20053;-66
2022/06/10 05:11:04;;;;;;;10.02;3.45;;;12.60;99.90;;;;;;10309416;28;20054;-66
2022/06/10 05:16:06;;;;;;;6.90;3.10;;;12.80;99.90;;;;;;10292532;28;20041;-66
2022/06/10 05:21:10;;;;;;;8.27;3.38;;;13.00;99.90;;;;;;10306901;28;20108;-66
2022/06/10 05:26:16;;;;;;;13.55;3.90;;;13.10;99.90;;;;;;10303402;28;20132;-66
2022/06/10 05:31:19;;;;;;;6.78;3.15;;;13.20;99.90;;;;;;10304864;28;20042;-66
2022/06/10 05:36:21;;;;;;;9.32;2.95;;;13.30;99.90;;;;;;10301223;28;20034;-67
2022/06/10 05:46:43;;;;;;;5.60;3.22;;;13.50;99.90;;;;;;10305355;28;20063;-65
2022/06/10 05:51:46;;;;;;;6.57;3.80;;;13.60;99.90;;;;;;10288895;28;20054;-65
2022/06/10 05:56:47;;;;;;;6.72;4.10;;;13.70;99.90;;;;;;10306592;28;20050;-65
2022/06/10 06:01:49;;;;;;;5.68;3.65;;;13.80;99.90;;;;;;10306791;28;20038;-65
2022/06/10 06:06:51;;;;;;;6.72;4.10;;;14.00;99.90;;;;;;10305449;28;20039;-66
2022/06/10 06:11:57;;;;;;;7.45;4.05;;;14.20;99.90;;;;;;10304107;28;20452;-67
2022/06/10 06:17:01;;;;;;;8.63;4.07;;;14.10;99.90;;;;;;10290180;28;20046;-67
2022/06/10 06:22:03;;;;;;;4.95;3.83;;;14.40;99.90;;;;;;10307510;28;20660;-67
2022/06/10 06:27:16;;;;;;;7.30;3.55;;;14.60;99.90;;;;;;10308461;28;20053;-67
2022/06/10 06:32:18;;;;;;;7.85;4.10;;;14.80;99.90;;;;;;10302155;28;20057;-67
2022/06/10 06:37:20;;;;;;;8.60;4.07;;;14.90;99.90;;;;;;10313383;28;20065;-67
2022/06/10 06:42:22;;;;;;;9.32;4.30;;;15.10;99.90;;;;;;10311618;28;20054;-66
2022/06/10 06:47:23;;;;;;;8.40;4.38;;;15.30;99.90;;;;;;10313231;28;20046;-67
2022/06/10 06:52:25;;;;;;;6.00;3.60;;;15.40;99.90;;;;;;10259067;28;20046;-67
2022/06/10 06:57:27;;;;;;;5.50;3.30;;;15.60;99.90;;;;;;10312773;28;20073;-67
2022/06/10 07:02:29;;;;;;;6.45;3.03;;;15.90;99.90;;;;;;10309127;28;20046;-67
2022/06/10 07:07:32;;;;;;;8.40;3.70;;;16.10;99.90;;;;;;10312618;28;20497;-67
2022/06/10 07:12:33;;;;;;;8.35;3.40;;;16.40;99.90;;;;;;10309889;28;20417;-67
2022/06/10 07:17:35;;;;;;;6.07;3.72;;;16.50;99.90;;;;;;10311558;28;20109;-67
2022/06/10 07:22:37;;;;;;;4.50;1.88;;;16.70;99.90;;;;;;10309655;28;20047;-67
2022/06/10 07:27:38;;;;;;;2.25;1.80;;;16.90;99.90;;;;;;10311421;28;20050;-67
2022/06/10 07:32:41;;;;;;;4.68;1.80;;;17.20;99.90;;;;;;10308252;28;20117;-68
2022/06/10 07:37:43;;;;;;;5.10;1.73;;;17.40;99.90;;;;;;10311513;28;20105;-67
2022/06/10 07:42:44;;;;;;;2.70;1.67;;;17.40;99.90;;;;;;10309153;28;20039;-67
2022/06/10 07:47:46;;;;;;;4.97;1.25;;;17.70;99.90;;;;;;10310519;28;20050;-67
2022/06/10 07:52:49;;;;;;;7.68;1.48;;;18.00;99.90;;;;;;10311186;28;20046;-67
2022/06/10 07:57:52;;;;;;;2.97;0.90;;;18.10;99.90;;;;;;10309830;28;20046;-67
2022/06/10 08:02:54;;;;;;;3.47;0.68;;;18.20;99.90;;;;;;10293430;28;20180;-67
2022/06/10 08:07:57;;;;;;;2.88;0.90;;;18.50;99.90;;;;;;10307722;28;20543;-68
2022/06/10 08:12:58;;;;;;;11.40;6.07;;;18.70;99.90;;;;;;10310504;28;20050;-67
2022/06/10 08:18:01;;;;;;;2.28;0.75;;;18.90;99.90;;;;;;10308844;28;20127;-67
2022/06/10 08:23:03;;;;;;;1.55;0.50;;;19.20;99.80;;;;;;10306889;28;20061;-67
2022/06/10 08:28:05;;;;;;;1.92;0.65;;;19.10;96.60;;;;;;10309215;28;20057;-67
2022/06/10 08:33:08;;;;;;;2.28;0.60;;;19.40;98.10;;;;;;10305098;28;20486;-67
2022/06/10 08:38:13;;;;;;;3.80;0.55;;;19.50;97.40;;;;;;10307742;28;20137;-67
2022/06/10 08:43:32;;;;;;;2.25;0.60;;;19.90;97.20;;;;;;10268357;28;20093;-67
2022/06/10 08:48:56;;;;;;;5.47;0.70;;;20.10;95.90;;;;;;10268909;28;20082;-67
2022/06/10 08:54:24;;;;;;;2.00;0.82;;;20.40;95.20;;;;;;10266727;28;20047;-67
2022/06/10 08:59:36;;;;;;;1.13;0.50;;;20.20;92.30;;;;;;10267631;28;20051;-68
2022/06/10 09:04:52;;;;;;;2.25;0.40;;;20.50;91.30;;;;;;10268952;28;20050;-66
2022/06/10 09:09:56;;;;;;;1.03;0.50;;;20.70;91.60;;;;;;10265722;28;20058;-67
2022/06/10 09:15:03;;;;;;;;;;;20.80;90.20;;;;;;10274077;28;20039;-67
2022/06/10 09:20:17;;;;;;;1.48;0.40;;;20.90;90.10;;;;;;10266512;28;20308;-68
2022/06/10 09:25:43;;;;;;;4.35;0.50;;;20.70;85.60;;;;;;10267599;28;20489;-68
2022/06/10 09:31:06;;;;;;;5.53;0.50;;;20.70;84.50;;;;;;10269334;28;20051;-67
2022/06/10 09:36:25;;;;;;;1.88;0.30;;;20.90;85.90;;;;;;10268183;28;20122;-67
2022/06/10 09:41:52;;;;;;;2.10;0.50;;;21.00;83.50;;;;;;10288416;28;20109;-66
2022/06/10 09:47:23;;;;;;;2.05;0.40;;;21.10;83.70;;;;;;10303885;28;20058;-67
2022/06/10 09:52:39;;;;;;;1.50;0.30;;;21.20;83.40;;;;;;10302973;28;20049;-67
2022/06/10 09:57:53;;;;;;;0.43;0.23;;;21.40;76.80;;;;;;10304281;28;20053;-67
2022/06/10 10:03:23;;;;;;;1.17;0.60;;;21.60;79.50;;;;;;10306100;28;20460;-67
2022/06/10 10:08:33;;;;;;;0.95;0.40;;;21.60;75.90;;;;;;10303708;28;20078;-68
2022/06/10 10:13:46;;;;;;;1.17;0.30;;;21.70;76.00;;;;;;10306833;28;20653;-68
2022/06/10 10:19:12;;;;;;;1.98;0.20;;;21.80;74.60;;;;;;10304056;28;20061;-67
2022/06/10 10:24:18;;;;;;;2.13;0.30;;;22.10;71.90;;;;;;10287891;28;20050;-67
2022/06/10 10:29:26;;;;;;;1.50;0.38;;;22.00;72.20;;;;;;10302339;28;20043;-67
2022/06/10 10:34:34;;;;;;;0.35;0.30;;;22.50;72.60;;;;;;10305781;28;20054;-67
2022/06/10 10:39:38;;;;;;;2.38;0.30;;;22.60;72.70;;;;;;10287890;28;20054;-67
2022/06/10 10:44:54;;;;;;;2.05;0.30;;;22.70;68.90;;;;;;10307606;28;20042;-67
2022/06/10 10:50:06;;;;;;;2.25;0.40;;;23.10;68.90;;;;;;10302952;28;20091;-67
2022/06/10 10:55:11;;;;;;;2.92;0.30;;;23.20;66.10;;;;;;10306029;28;20054;-68
2022/06/10 11:00:16;;;;;;;2.35;0.30;;;23.40;63.50;;;;;;10304578;28;20046;-68
2022/06/10 11:05:32;;;;;;;1.45;0.30;;;23.50;66.40;;;;;;10301509;28;20700;-69
2022/06/10 11:10:35;;;;;;;;;;;23.50;64.00;;;;;;10305715;28;20054;-68
2022/06/10 11:15:37;;;;;;;4.80;0.32;;;24.10;62.70;;;;;;10306402;28;19933;-68
2022/06/10 11:20:38;;;;;;;0.93;0.17;;;23.90;61.70;;;;;;10309345;28;20046;-69
2022/06/10 11:25:41;;;;;;;1.67;0.30;;;24.00;60.90;;;;;;10310905;28;20050;-69
2022/06/10 11:30:48;;;;;;;1.42;0.30;;;23.90;62.30;;;;;;10311882;28;20050;-68
2022/06/10 11:36:08;;;;;;;1.95;0.30;;;24.20;63.20;;;;;;10310421;28;20101;-67
2022/06/10 11:41:31;;;;;;;3.40;0.35;;;24.20;62.90;;;;;;10309320;28;20058;-67
2022/06/10 11:46:36;;;;;;;2.47;0.30;;;24.80;61.20;;;;;;10308810;28;20046;-68
2022/06/10 11:51:59;;;;;;;3.17;0.30;;;24.70;59.50;;;;;;10310015;28;20050;-67
2022/06/10 12:02:59;;;;;;;5.35;0.70;;;25.20;58.70;;;;;;10319822;28;20046;-67
2022/06/10 12:08:32;;;;;;;0.55;0.20;;;25.40;56.90;;;;;;10318913;28;20169;-66
2022/06/10 12:13:42;;;;;;;4.07;0.28;;;25.10;57.00;;;;;;10314777;28;20122;-66
2022/06/10 12:18:50;;;;;;;2.88;0.30;;;25.40;55.60;;;;;;10295316;28;20046;-66
2022/06/10 12:23:52;;;;;;;5.10;0.55;;;24.70;58.00;;;;;;10314679;28;20046;-66
2022/06/10 12:29:21;;;;;;;3.00;0.30;;;25.00;58.60;;;;;;10299791;28;20054;-66
2022/06/10 12:34:40;;;;;;;1.08;0.22;;;25.20;58.10;;;;;;10311553;28;20046;-65
2022/06/10 12:40:06;;;;;;;1.17;0.30;;;25.10;56.60;;;;;;10309559;28;20038;-66
2022/06/10 12:45:48;;;;;;;1.20;0.30;;;25.40;54.90;;;;;;10313898;28;20061;-66
2022/06/10 12:51:01;;;;;;;0.82;0.17;;;25.20;55.50;;;;;;10226062;28;20054;-70
2022/06/10 12:56:22;;;;;;;2.03;0.40;;;25.60;53.70;;;;;;10271283;28;20477;-66
2022/06/10 13:01:42;;;;;;;2.30;0.20;;;25.70;53.20;;;;;;10312964;28;20046;-66
2022/06/10 13:06:43;;;;;;;4.13;0.20;;;26.30;52.90;;;;;;10308479;28;20113;-65
2022/06/10 13:11:47;;;;;;;0.77;0.20;;;25.90;51.40;;;;;;10307132;28;20054;-64
2022/06/10 13:17:11;;;;;;;1.75;0.22;;;25.80;51.90;;;;;;10304924;28;20057;-65
2022/06/10 13:22:19;;;;;;;1.85;0.20;;;25.70;51.80;;;;;;10307144;28;20074;-65
2022/06/10 13:27:46;;;;;;;3.00;0.20;;;25.70;51.30;;;;;;10306637;28;20141;-65
2022/06/10 13:32:52;;;;;;;2.90;0.20;;;26.30;51.60;;;;;;10295980;28;20104;-65
2022/06/10 13:38:00;;;;;;;1.10;0.20;;;26.60;49.50;;;;;;10305363;28;20121;-66
2022/06/10 13:43:04;;;;;;;0.38;0.20;;;26.50;49.30;;;;;;10274164;28;20049;-65
2022/06/10 13:48:18;;;;;;;1.50;0.25;;;26.70;49.30;;;;;;10247487;28;20420;-66
2022/06/10 13:53:38;;;;;;;1.35;0.50;;;26.40;50.30;;;;;;10267028;28;20073;-66
2022/06/10 13:58:45;;;;;;;0.40;0.20;;;26.30;49.50;;;;;;10270834;28;20050;-66
2022/06/10 14:03:52;;;;;;;4.88;0.30;;;26.50;50.60;;;;;;10262350;28;20046;-66
2022/06/10 14:09:13;;;;;;;1.02;0.30;;;26.70;48.40;;;;;;10267320;28;20109;-66
2022/06/10 14:14:21;;;;;;;3.42;0.30;;;27.10;48.70;;;;;;10273529;28;20046;-66
2022/06/10 14:19:27;;;;;;;1.77;0.20;;;26.60;50.70;;;;;;10261437;28;20051;-66
2022/06/10 14:24:31;;;;;;;2.28;0.20;;;26.10;51.30;;;;;;10268782;28;20047;-66
2022/06/10 14:29:46;;;;;;;1.58;0.30;;;25.80;52.00;;;;;;10268818;28;20065;-66
2022/06/10 14:34:51;;;;;;;0.55;0.20;;;26.20;51.30;;;;;;10264147;28;20054;-66
2022/06/10 14:40:16;;;;;;;1.02;0.20;;;26.50;52.70;;;;;;10275884;28;20520;-65
2022/06/10 14:45:31;;;;;;;0.98;0.28;;;26.30;53.10;;;;;;10280377;28;20643;-65
2022/06/10 14:50:38;;;;;;;1.55;0.30;;;26.30;51.60;;;;;;10303614;28;20053;-65
2022/06/10 14:55:44;;;;;;;4.40;0.22;;;26.60;52.10;;;;;;10289348;28;20047;-65
2022/06/10 15:00:51;;;;;;;2.28;0.20;;;26.60;53.10;;;;;;10312671;28;20053;-65
2022/06/10 15:06:19;;;;;;;0.40;0.10;;;26.00;53.00;;;;;;10313256;28;20046;-64
2022/06/10 15:11:23;;;;;;;1.20;0.30;;;25.40;53.70;;;;;;10311960;28;20046;-65
2022/06/10 15:16:25;;;;;;;0.65;0.20;;;25.10;54.40;;;;;;10312820;28;20055;-64
2022/06/10 15:21:38;;;;;;;1.58;0.20;;;24.80;56.10;;;;;;10312638;28;20050;-63
2022/06/10 15:26:44;;;;;;;1.52;0.30;;;24.70;56.20;;;;;;10308108;28;20558;-65
2022/06/10 15:31:46;;;;;;;;;;;24.50;57.30;;;;;;10311131;28;20046;-65
2022/06/10 15:42:10;;;;;;;1.75;0.30;;;24.90;56.10;;;;;;10311648;28;20054;-65
2022/06/10 15:47:16;;;;;;;1.83;0.30;;;25.20;56.60;;;;;;10294668;28;20105;-64
2022/06/10 15:52:30;;;;;;;5.93;0.35;;;25.50;55.50;;;;;;10307755;28;20128;-64
2022/06/10 15:57:38;;;;;;;4.18;0.28;;;25.90;55.80;;;;;;10308015;28;20046;-64
2022/06/10 16:02:45;;;;;;;2.05;0.30;;;26.20;53.70;;;;;;10291563;28;20046;-63
2022/06/10 16:07:47;;;;;;;0.57;0.20;;;26.10;53.60;;;;;;10306182;28;20058;-63
2022/06/10 16:13:04;;;;;;;2.10;0.20;;;26.50;53.50;;;;;;10307541;28;20488;-64
2022/06/10 16:18:22;;;;;;;3.80;0.30;;;27.00;51.80;;;;;;10305420;28;20137;-63
2022/06/10 16:23:27;;;;;;;2.25;0.20;;;27.10;49.90;;;;;;10305344;28;20521;-66
2022/06/10 16:28:40;;;;;;;0.77;0.20;;;27.10;50.10;;;;;;10304030;28;20046;-66
2022/06/10 16:33:43;;;;;;;1.25;0.10;;;26.80;50.10;;;;;;10305198;28;20043;-66
2022/06/10 16:38:46;;;;;;;1.75;0.10;;;26.40;50.20;;;;;;10302088;28;20054;-66
2022/06/10 16:43:48;;;;;;;0.98;0.20;;;26.30;50.50;;;;;;10265241;28;20039;-66
2022/06/10 16:48:50;;;;;;;1.13;0.40;;;25.70;53.20;;;;;;10259119;28;20055;-66
2022/06/10 16:53:52;;;;;;;5.15;0.60;;;25.30;53.60;;;;;;10248010;28;20058;-66
2022/06/10 16:58:56;;;;;;;1.95;0.25;;;25.60;54.10;;;;;;10263406;28;20035;-66
2022/06/10 17:03:57;;;;;;;1.00;0.10;;;25.70;53.60;;;;;;10262999;28;20465;-66
2022/06/10 17:08:59;;;;;;;3.70;0.20;;;26.30;53.40;;;;;;10267236;28;20055;-66
2022/06/10 17:14:02;;;;;;;0.50;0.10;;;26.60;52.80;;;;;;10267121;28;20043;-66
2022/06/10 17:19:07;;;;;;;1.63;0.15;;;26.40;52.20;;;;;;10264929;28;20043;-67
2022/06/10 17:24:11;;;;;;;1.33;0.30;;;26.50;51.80;;;;;;10260676;28;20043;-67
2022/06/10 17:29:35;;;;;;;2.92;0.40;;;26.30;52.50;;;;;;10246201;28;20278;-66
2022/06/10 17:34:37;;;;;;;1.30;0.20;;;25.80;53.00;;;;;;10240346;28;20073;-67
2022/06/10 17:39:38;;;;;;;1.95;0.30;;;25.60;52.60;;;;;;10276739;28;20053;-66
2022/06/10 17:44:40;;;;;;;4.57;0.20;;;25.80;53.00;;;;;;10302014;28;20046;-66
2022/06/10 17:49:51;;;;;;;5.05;0.20;;;26.70;51.40;;;;;;10306231;28;20054;-66
2022/06/10 17:54:56;;;;;;;1.45;0.20;;;26.80;50.60;;;;;;10304554;28;20050;-67
2022/06/10 17:59:59;;;;;;;2.65;0.45;;;27.10;51.10;;;;;;10307471;28;20100;-67
2022/06/10 18:05:09;;;;;;;2.58;0.20;;;27.70;52.10;;;;;;10306324;28;20054;-67
2022/06/10 18:10:11;;;;;;;4.40;0.50;;;27.70;52.60;;;;;;10306768;28;20054;-66
2022/06/10 18:15:16;;;;;;;2.05;0.38;;;27.40;53.20;;;;;;10305590;28;20053;-68
2022/06/10 18:20:26;;;;;;;2.25;0.40;;;27.00;54.30;;;;;;10306497;28;20054;-68
2022/06/10 18:25:28;;;;;;;2.03;0.47;;;26.60;55.20;;;;;;10307353;28;20055;-64
2022/06/10 18:30:31;;;;;;;1.98;0.50;;;26.10;56.90;;;;;;10310706;28;20485;-62
2022/06/10 18:35:39;;;;;;;2.60;0.50;;;25.80;55.60;;;;;;10314496;28;20050;-63
2022/06/10 18:41:02;;;;;;;3.03;0.40;;;25.40;57.70;;;;;;10297986;28;20054;-68
2022/06/10 18:46:19;;;;;;;2.03;0.30;;;24.90;59.30;;;;;;10315257;28;20053;-67
2022/06/10 18:51:42;;;;;;;2.28;0.60;;;24.60;61.00;;;;;;10306762;28;20042;-67
2022/06/10 18:56:45;;;;;;;1.92;0.70;;;24.10;61.80;;;;;;10301118;28;20042;-66
2022/06/10 19:01:52;;;;;;;3.60;0.52;;;23.70;64.10;;;;;;10309856;28;20053;-66
2022/06/10 19:06:55;;;;;;;2.08;0.60;;;23.20;66.30;;;;;;10312063;28;20052;-67
2022/06/10 19:11:58;;;;;;;5.80;0.60;;;22.80;68.40;;;;;;10311240;28;20042;-66
2022/06/10 19:17:07;;;;;;;3.95;0.70;;;22.60;70.20;;;;;;10311837;28;20042;-67
2022/06/10 19:22:24;;;;;;;3.25;0.60;;;22.40;72.30;;;;;;10310328;28;20116;-67
2022/06/10 19:27:29;;;;;;;1.52;0.73;;;22.30;75.60;;;;;;10309115;28;21901;-67
2022/06/10 19:32:39;;;;;;;2.60;0.37;;;22.20;77.10;;;;;;10313249;28;20062;-67
2022/06/10 19:37:41;;;;;;;3.50;0.52;;;22.10;78.00;;;;;;10293743;28;20046;-66
2022/06/10 19:42:43;;;;;;;2.25;0.60;;;21.90;78.40;;;;;;10312284;28;20046;-67
2022/06/10 19:47:50;;;;;;;1.38;0.40;;;21.80;79.70;;;;;;10313861;28;20506;-67
2022/06/10 19:53:11;;;;;;;3.83;0.75;;;21.50;82.30;;;;;;10293021;28;20105;-68
2022/06/10 19:58:39;;;;;;;4.15;0.65;;;21.20;84.60;;;;;;10310349;28;20065;-69
2022/06/10 20:03:41;;;;;;;2.55;0.50;;;21.20;87.00;;;;;;10309660;28;20054;-67
2022/06/10 20:08:44;;;;;;;2.05;0.73;;;21.10;89.80;;;;;;10307437;28;20050;-69
2022/06/10 20:13:46;;;;;;;4.05;0.88;;;21.00;90.60;;;;;;10310350;28;20152;-67
2022/06/10 20:18:59;;;;;;;2.38;0.65;;;20.90;90.90;;;;;;10294312;28;20108;-67
2022/06/10 20:24:01;;;;;;;4.15;1.20;;;20.80;91.50;;;;;;10306636;28;20042;-67
2022/06/10 20:29:04;;;;;;;1.73;0.70;;;20.70;93.50;;;;;;10312071;28;20073;-67
2022/06/10 20:34:34;;;;;;;3.67;1.55;;;20.60;94.00;;;;;;10299002;28;20137;-67
2022/06/10 20:39:35;;;;;;;3.83;0.90;;;20.50;95.10;;;;;;10309687;28;20062;-66
2022/06/10 20:44:44;;;;;;;2.70;0.90;;;20.40;96.50;;;;;;10310916;28;20057;-63
2022/06/10 20:49:56;;;;;;;6.00;1.30;;;20.40;96.40;;;;;;10308698;28;20113;-66
2022/06/10 20:54:58;;;;;;;8.07;1.50;;;20.30;97.30;;;;;;10307160;28;20046;-63
2022/06/10 21:00:00;;;;;;;5.05;1.77;;;20.30;98.50;;;;;;10307108;28;20046;-63
2022/06/10 21:10:48;;;;;;;4.45;1.05;;;19.90;99.90;;;;;;10267618;28;20047;-62
2022/06/10 21:16:04;;;;;;;2.70;1.02;;;19.60;99.90;;;;;;10536747;27;20212;-64
2022/06/10 21:21:10;;;;;;;4.80;2.45;;;19.60;99.90;;;;;;10526663;28;20497;-64
2022/06/10 21:26:14;;;;;;;;;;;19.50;99.90;;;;;;10563226;28;20044;-63
2022/06/10 21:31:22;;;;;;;5.95;2.20;;;19.50;99.90;;;;;;10575677;28;20377;-64
2022/06/10 21:36:31;;;;;;;5.22;2.63;;;19.30;99.90;;;;;;10557334;28;20044;-65
2022/06/10 21:41:44;;;;;;;7.80;3.40;;;19.20;99.90;;;;;;10552134;28;20041;-64
2022/06/10 21:46:48;;;;;;;5.05;1.98;;;19.10;99.90;;;;;;10511456;28;20044;-64
2022/06/10 21:51:50;;;;;;;4.00;1.77;;;19.10;99.90;;;;;;10522629;28;20049;-64
2022/06/10 21:56:53;;;;;;;4.35;2.00;;;18.90;99.90;;;;;;10509032;28;20044;-64
2022/06/10 22:01:56;;;;;;;8.82;2.30;;;18.80;99.90;;;;;;10516432;28;20052;-64
2022/06/10 22:07:03;;;;;;;7.05;2.20;;;18.70;99.90;;;;;;10511986;28;20449;-63
2022/06/10 22:12:08;;;;;;;5.22;1.88;;;18.60;99.90;;;;;;10515748;28;20067;-63
2022/06/10 22:17:19;;;;;;;3.97;1.63;;;18.60;99.90;;;;;;10510510;28;20040;-63
2022/06/10 22:22:26;;;;;;;3.00;0.95;;;18.50;99.90;;;;;;10511672;28;20048;-65
2022/06/10 22:27:41;;;;;;;4.57;0.93;;;18.30;99.90;;;;;;10493107;28;20064;-64
2022/06/10 22:32:44;;;;;;;2.30;0.60;;;18.00;99.90;;;;;;10487121;28;20055;-63
2022/06/10 22:37:46;;;;;;;3.50;1.13;;;18.00;99.90;;;;;;10486781;28;20048;-64
2022/06/10 22:42:52;;;;;;;5.35;1.33;;;17.90;99.90;;;;;;10473019;28;20478;-63
2022/06/10 22:47:54;;;;;;;2.10;0.70;;;17.70;99.90;;;;;;10483298;28;20044;-63
2022/06/10 22:53:01;;;;;;;4.82;0.95;;;17.70;99.90;;;;;;10478512;28;20045;-62
2022/06/10 22:58:10;;;;;;;5.00;1.02;;;17.60;99.90;;;;;;10493182;28;20052;-62
2022/06/10 23:03:32;;;;;;;2.42;0.88;;;17.40;99.90;;;;;;10479787;28;20056;-62
2022/06/10 23:14:00;;;;;;;3.92;0.95;;;17.30;99.90;;;;;;10485219;28;20066;-63
2022/06/10 23:19:05;;;;;;;6.55;1.25;;;17.10;99.90;;;;;;10481231;28;20044;-62
2022/06/10 23:24:10;;;;;;;2.42;0.80;;;17.00;99.90;;;;;;10488012;28;20040;-62
2022/06/10 23:29:12;;;;;;;3.92;0.90;;;17.00;99.90;;;;;;10477948;28;20097;-63
2022/06/10 23:34:37;;;;;;;3.92;0.80;;;16.90;99.90;;;;;;10484143;28;20151;-62
2022/06/10 23:39:39;;;;;;;4.00;0.80;;;16.90;99.90;;;;;;10482510;28;20044;-63
2022/06/10 23:44:41;;;;;;;1.85;0.90;;;16.80;99.90;;;;;;10487921;28;20415;-63
